sensor_id;sensor_type;location;lat;lon;timestamp;pressure;altitude;pressure_sealevel;temperature;humidity
28310;BME280;15571;50.974;13.936;2023-02-18T01:38:14;100322.72;;;9.10;100.00
28310;BME280;15571;50.974;13.936;2023-02-18T01:41:17;100314.00;;;9.05;100.00
28310;BME280;15571;50.974;13.936;2023-02-18T01:44:23;100313.13;;;9.05;100.00
28310;BME280;15571;50.974;13.936;2023-02-18T01:47:25;100309.66;;;9.01;100.00
28310;BME280;15571;50.974;13.936;2023-02-18T01:50:27;100308.75;;;8.96;100.00
28310;BME280;15571;50.974;13.936;2023-02-18T01:53:32;100310.50;;;8.97;100.00
28310;BME280;15571;50.974;13.936;2023-02-18T01:56:36;100309.63;;;8.95;100.00
28310;BME280;15571;50.974;13.936;2023-02-18T01:59:41;100312.22;;;8.92;100.00
28310;BME280;15571;50.974;13.936;2023-02-18T02:02:45;100307.88;;;8.91;100.00
28310;BME280;15571;50.974;13.936;2023-02-18T02:05:47;100315.69;;;8.87;100.00
28310;BME280;15571;50.974;13.936;2023-02-18T02:08:52;100312.19;;;8.82;100.00
28310;BME280;15571;50.974;13.936;2023-02-18T02:15:23;100313.06;;;8.78;100.00
28310;BME280;15571;50.974;13.936;2023-02-18T02:18:37;100320.00;;;8.76;100.00
28310;BME280;15571;50.974;13.936;2023-02-18T02:25:02;100324.34;;;8.71;100.00
28310;BME280;15571;50.974;13.936;2023-02-18T02:28:30;100318.22;;;8.67;100.00
28310;BME280;15571;50.974;13.936;2023-02-18T02:31:57;100318.22;;;8.63;100.00
28310;BME280;15571;50.974;13.936;2023-02-18T02:35:04;100313.88;;;8.59;100.00
28310;BME280;15571;50.974;13.936;2023-02-18T02:38:11;100315.59;;;8.56;100.00
28310;BME280;15571;50.974;13.936;2023-02-18T02:41:20;100319.94;;;8.57;100.00
28310;BME280;15571;50.974;13.936;2023-02-18T02:44:29;100310.38;;;8.55;100.00
28310;BME280;15571;50.974;13.936;2023-02-18T02:47:35;100307.75;;;8.55;100.00
28310;BME280;15571;50.974;13.936;2023-02-18T02:50:44;100316.44;;;8.54;100.00
28310;BME280;15571;50.974;13.936;2023-02-18T02:53:49;100317.31;;;8.53;100.00
28310;BME280;15571;50.974;13.936;2023-02-18T02:57:02;100324.25;;;8.51;100.00
28310;BME280;15571;50.974;13.936;2023-02-18T03:00:05;100319.91;;;8.48;100.00
28310;BME280;15571;50.974;13.936;2023-02-18T03:03:16;100314.69;;;8.48;100.00
28310;BME280;15571;50.974;13.936;2023-02-18T03:09:50;100319.91;;;8.48;100.00
28310;BME280;15571;50.974;13.936;2023-02-18T03:13:00;100319.00;;;8.48;100.00
28310;BME280;15571;50.974;13.936;2023-02-18T03:16:07;100318.13;;;8.46;100.00
28310;BME280;15571;50.974;13.936;2023-02-18T03:19:17;100314.63;;;8.45;100.00
28310;BME280;15571;50.974;13.936;2023-02-18T03:22:22;100326.81;;;8.46;100.00
28310;BME280;15571;50.974;13.936;2023-02-18T03:25:28;100322.47;;;8.47;100.00
28310;BME280;15571;50.974;13.936;2023-02-18T03:28:32;100333.81;;;8.47;100.00
28310;BME280;15571;50.974;13.936;2023-02-18T03:31:36;100333.81;;;8.47;100.00
28310;BME280;15571;50.974;13.936;2023-02-18T03:34:40;100318.19;;;8.50;100.00
28310;BME280;15571;50.974;13.936;2023-02-18T03:37:44;100316.44;;;8.55;100.00
28310;BME280;15571;50.974;13.936;2023-02-18T03:40:49;100312.09;;;8.53;100.00
28310;BME280;15571;50.974;13.936;2023-02-18T03:43:53;100319.94;;;8.56;100.00
28310;BME280;15571;50.974;13.936;2023-02-18T03:46:55;100317.34;;;8.57;100.00
28310;BME280;15571;50.974;13.936;2023-02-18T03:49:57;100326.03;;;8.56;100.00
28310;BME280;15571;50.974;13.936;2023-02-18T03:52:59;100332.97;;;8.59;100.00
28310;BME280;15571;50.974;13.936;2023-02-18T03:56:03;100333.00;;;8.57;100.00
28310;BME280;15571;50.974;13.936;2023-02-18T03:59:05;100326.88;;;8.55;100.00
28310;BME280;15571;50.974;13.936;2023-02-18T04:02:07;100321.66;;;8.54;100.00
28310;BME280;15571;50.974;13.936;2023-02-18T04:05:09;100324.28;;;8.55;100.00
28310;BME280;15571;50.974;13.936;2023-02-18T04:08:11;100316.41;;;8.52;100.00
28310;BME280;15571;50.974;13.936;2023-02-18T04:11:17;100326.84;;;8.52;100.00
28310;BME280;15571;50.974;13.936;2023-02-18T04:14:20;100323.41;;;8.55;100.00
28310;BME280;15571;50.974;13.936;2023-02-18T04:17:22;100325.13;;;8.54;100.00
28310;BME280;15571;50.974;13.936;2023-02-18T04:20:25;100323.38;;;8.53;100.00
28310;BME280;15571;50.974;13.936;2023-02-18T04:23:27;100324.28;;;8.55;100.00
28310;BME280;15571;50.974;13.936;2023-02-18T04:26:30;100333.84;;;8.56;100.00
28310;BME280;15571;50.974;13.936;2023-02-18T04:29:36;100339.94;;;8.55;100.00
28310;BME280;15571;50.974;13.936;2023-02-18T04:32:38;100336.44;;;8.53;100.00
28310;BME280;15571;50.974;13.936;2023-02-18T04:35:40;100331.25;;;8.55;100.00
28310;BME280;15571;50.974;13.936;2023-02-18T04:38:42;100342.53;;;8.54;100.00
28310;BME280;15571;50.974;13.936;2023-02-18T04:41:45;100332.06;;;8.52;100.00
28310;BME280;15571;50.974;13.936;2023-02-18T04:44:47;100332.97;;;8.54;100.00
28310;BME280;15571;50.974;13.936;2023-02-18T04:47:49;100318.19;;;8.55;100.00
28310;BME280;15571;50.974;13.936;2023-02-18T04:50:51;100312.97;;;8.56;100.00
28310;BME280;15571;50.974;13.936;2023-02-18T04:53:53;100297.31;;;8.56;100.00
28310;BME280;15571;50.974;13.936;2023-02-18T04:56:56;100307.75;;;8.56;100.00
28310;BME280;15571;50.974;13.936;2023-02-18T04:59:58;100321.66;;;8.55;100.00
28310;BME280;15571;50.974;13.936;2023-02-18T05:03:00;100328.59;;;8.53;100.00
28310;BME280;15571;50.974;13.936;2023-02-18T05:06:02;100326.88;;;8.54;100.00
28310;BME280;15571;50.974;13.936;2023-02-18T05:09:04;100327.75;;;8.53;100.00
28310;BME280;15571;50.974;13.936;2023-02-18T05:12:08;100332.06;;;8.52;100.00
28310;BME280;15571;50.974;13.936;2023-02-18T05:15:09;100333.81;;;8.53;100.00
28310;BME280;15571;50.974;13.936;2023-02-18T05:18:11;100335.59;;;8.51;100.00
28310;BME280;15571;50.974;13.936;2023-02-18T05:21:16;100328.63;;;8.50;100.00
28310;BME280;15571;50.974;13.936;2023-02-18T05:24:18;100321.66;;;8.55;100.00
28310;BME280;15571;50.974;13.936;2023-02-18T05:27:24;100327.75;;;8.54;100.00
28310;BME280;15571;50.974;13.936;2023-02-18T05:30:26;100328.59;;;8.53;100.00
28310;BME280;15571;50.974;13.936;2023-02-18T05:33:28;100318.19;;;8.55;100.00
28310;BME280;15571;50.974;13.936;2023-02-18T05:36:29;100312.94;;;8.53;100.00
28310;BME280;15571;50.974;13.936;2023-02-18T05:39:31;100318.19;;;8.56;100.00
28310;BME280;15571;50.974;13.936;2023-02-18T05:42:35;100306.03;;;8.59;100.00
28310;BME280;15571;50.974;13.936;2023-02-18T05:45:38;100301.66;;;8.59;100.00
28310;BME280;15571;50.974;13.936;2023-02-18T05:48:44;100299.94;;;8.58;100.00
28310;BME280;15571;50.974;13.936;2023-02-18T05:51:46;100293.84;;;8.57;100.00
28310;BME280;15571;50.974;13.936;2023-02-18T05:54:48;100295.59;;;8.57;100.00
28310;BME280;15571;50.974;13.936;2023-02-18T05:57:51;100293.84;;;8.57;100.00
28310;BME280;15571;50.974;13.936;2023-02-18T06:00:53;100287.78;;;8.57;100.00
28310;BME280;15571;50.974;13.936;2023-02-18T06:03:58;100282.56;;;8.57;100.00
28310;BME280;15571;50.974;13.936;2023-02-18T06:07:00;100283.41;;;8.57;100.00
28310;BME280;15571;50.974;13.936;2023-02-18T06:10:04;100292.09;;;8.56;100.00
28310;BME280;15571;50.974;13.936;2023-02-18T06:13:08;100291.25;;;8.57;100.00
28310;BME280;15571;50.974;13.936;2023-02-18T06:16:12;100286.88;;;8.56;100.00
28310;BME280;15571;50.974;13.936;2023-02-18T06:19:14;100282.56;;;8.57;100.00
28310;BME280;15571;50.974;13.936;2023-02-18T06:22:16;100286.88;;;8.56;100.00
28310;BME280;15571;50.974;13.936;2023-02-18T06:25:21;100290.34;;;8.55;100.00
28310;BME280;15571;50.974;13.936;2023-02-18T06:28:25;100296.47;;;8.56;100.00
28310;BME280;15571;50.974;13.936;2023-02-18T06:31:27;100291.25;;;8.56;100.00
28310;BME280;15571;50.974;13.936;2023-02-18T06:34:32;100286.88;;;8.55;100.00
28310;BME280;15571;50.974;13.936;2023-02-18T06:37:34;100291.22;;;8.53;100.00
28310;BME280;15571;50.974;13.936;2023-02-18T06:40:36;100283.38;;;8.50;100.00
28310;BME280;15571;50.974;13.936;2023-02-18T06:43:41;100279.91;;;8.49;100.00
28310;BME280;15571;50.974;13.936;2023-02-18T06:46:43;100279.03;;;8.47;100.00
28310;BME280;15571;50.974;13.936;2023-02-18T06:49:49;100274.63;;;8.46;100.00
28310;BME280;15571;50.974;13.936;2023-02-18T06:52:51;100278.09;;;8.45;100.00
28310;BME280;15571;50.974;13.936;2023-02-18T06:55:53;100278.13;;;8.42;100.00
28310;BME280;15571;50.974;13.936;2023-02-18T06:58:56;100278.09;;;8.39;100.00
28310;BME280;15571;50.974;13.936;2023-02-18T07:01:58;100272.88;;;8.37;100.00
28310;BME280;15571;50.974;13.936;2023-02-18T07:05:01;100272.00;;;8.37;100.00
28310;BME280;15571;50.974;13.936;2023-02-18T07:08:06;100262.41;;;8.33;100.00
28310;BME280;15571;50.974;13.936;2023-02-18T07:11:11;100264.16;;;8.32;100.00
28310;BME280;15571;50.974;13.936;2023-02-18T07:14:16;100262.41;;;8.31;100.00
28310;BME280;15571;50.974;13.936;2023-02-18T07:17:18;100264.97;;;8.28;100.00
28310;BME280;15571;50.974;13.936;2023-02-18T07:20:20;100258.91;;;8.26;100.00
28310;BME280;15571;50.974;13.936;2023-02-18T07:23:24;100256.31;;;8.26;100.00
28310;BME280;15571;50.974;13.936;2023-02-18T07:26:25;100262.38;;;8.26;100.00
28310;BME280;15571;50.974;13.936;2023-02-18T07:29:29;100256.28;;;8.23;100.00
28310;BME280;15571;50.974;13.936;2023-02-18T07:32:31;100253.66;;;8.24;100.00
28310;BME280;15571;50.974;13.936;2023-02-18T07:35:33;100240.63;;;8.24;100.00
28310;BME280;15571;50.974;13.936;2023-02-18T07:38:36;100229.34;;;8.22;100.00
28310;BME280;15571;50.974;13.936;2023-02-18T07:41:38;100234.56;;;8.22;100.00
28310;BME280;15571;50.974;13.936;2023-02-18T07:44:50;100219.78;;;8.23;100.00
28310;BME280;15571;50.974;13.936;2023-02-18T07:47:51;100222.38;;;8.24;100.00
28310;BME280;15571;50.974;13.936;2023-02-18T07:50:54;100207.63;;;8.25;100.00
28310;BME280;15571;50.974;13.936;2023-02-18T07:53:55;100220.66;;;8.26;100.00
28310;BME280;15571;50.974;13.936;2023-02-18T07:56:57;100217.19;;;8.29;100.00
28310;BME280;15571;50.974;13.936;2023-02-18T08:00:00;100218.94;;;8.29;100.00
28310;BME280;15571;50.974;13.936;2023-02-18T08:03:14;100211.97;;;8.29;100.00
28310;BME280;15571;50.974;13.936;2023-02-18T08:06:20;100187.63;;;8.29;100.00
28310;BME280;15571;50.974;13.936;2023-02-18T08:09:23;100199.81;;;8.30;100.00
28310;BME280;15571;50.974;13.936;2023-02-18T08:12:25;100196.34;;;8.31;100.00
28310;BME280;15571;50.974;13.936;2023-02-18T08:15:30;100175.47;;;8.31;100.00
28310;BME280;15571;50.974;13.936;2023-02-18T08:18:34;100191.97;;;8.31;100.00
28310;BME280;15571;50.974;13.936;2023-02-18T08:21:39;100152.84;;;8.33;100.00
28310;BME280;15571;50.974;13.936;2023-02-18T08:24:42;100164.16;;;8.33;100.00
28310;BME280;15571;50.974;13.936;2023-02-18T08:27:44;100166.78;;;8.32;100.00
28310;BME280;15571;50.974;13.936;2023-02-18T08:30:48;100165.03;;;8.34;100.00
28310;BME280;15571;50.974;13.936;2023-02-18T08:33:51;100151.13;;;8.35;100.00
28310;BME280;15571;50.974;13.936;2023-02-18T08:36:53;100152.00;;;8.34;100.00
28310;BME280;15571;50.974;13.936;2023-02-18T08:39:57;100147.66;;;8.34;100.00
28310;BME280;15571;50.974;13.936;2023-02-18T08:43:00;100138.97;;;8.37;100.00
28310;BME280;15571;50.974;13.936;2023-02-18T08:46:03;100140.72;;;8.38;100.00
28310;BME280;15571;50.974;13.936;2023-02-18T08:49:07;100120.72;;;8.40;100.00
28310;BME280;15571;50.974;13.936;2023-02-18T08:52:09;100120.72;;;8.40;100.00
28310;BME280;15571;50.974;13.936;2023-02-18T08:55:12;100114.63;;;8.41;100.00
28310;BME280;15571;50.974;13.936;2023-02-18T08:58:14;100116.38;;;8.42;100.00
28310;BME280;15571;50.974;13.936;2023-02-18T09:01:18;100120.69;;;8.43;100.00
28310;BME280;15571;50.974;13.936;2023-02-18T09:04:20;100099.84;;;8.43;100.00
28310;BME280;15571;50.974;13.936;2023-02-18T09:07:22;100112.00;;;8.44;100.00
28310;BME280;15571;50.974;13.936;2023-02-18T09:10:24;100105.94;;;8.44;100.00
28310;BME280;15571;50.974;13.936;2023-02-18T09:13:27;100090.28;;;8.44;100.00
28310;BME280;15571;50.974;13.936;2023-02-18T09:16:30;100087.66;;;8.45;100.00
28310;BME280;15571;50.974;13.936;2023-02-18T09:19:34;100079.84;;;8.45;100.00
28310;BME280;15571;50.974;13.936;2023-02-18T09:22:36;100072.94;;;8.47;100.00
28310;BME280;15571;50.974;13.936;2023-02-18T09:25:38;100062.50;;;8.47;100.00
28310;BME280;15571;50.974;13.936;2023-02-18T09:28:40;100059.03;;;8.48;100.00
28310;BME280;15571;50.974;13.936;2023-02-18T09:31:43;100060.75;;;8.51;100.00
28310;BME280;15571;50.974;13.936;2023-02-18T09:34:49;100057.28;;;8.49;100.00
28310;BME280;15571;50.974;13.936;2023-02-18T09:37:50;100052.06;;;8.50;100.00
28310;BME280;15571;50.974;13.936;2023-02-18T09:40:52;100036.41;;;8.52;100.00
28310;BME280;15571;50.974;13.936;2023-02-18T09:43:56;100030.31;;;8.53;100.00
28310;BME280;15571;50.974;13.936;2023-02-18T09:47:02;100019.03;;;8.54;100.00
28310;BME280;15571;50.974;13.936;2023-02-18T09:50:06;100020.75;;;8.55;100.00
28310;BME280;15571;50.974;13.936;2023-02-18T09:53:11;100024.22;;;8.55;100.00
28310;BME280;15571;50.974;13.936;2023-02-18T09:56:14;100006.84;;;8.57;100.00
28310;BME280;15571;50.974;13.936;2023-02-18T09:59:17;100004.25;;;8.61;100.00
28310;BME280;15571;50.974;13.936;2023-02-18T10:02:21;100004.22;;;8.64;100.00
28310;BME280;15571;50.974;13.936;2023-02-18T10:05:24;99998.13;;;8.68;100.00
28310;BME280;15571;50.974;13.936;2023-02-18T10:08:32;100001.59;;;8.73;100.00
28310;BME280;15571;50.974;13.936;2023-02-18T10:11:37;99991.16;;;8.76;100.00
28310;BME280;15571;50.974;13.936;2023-02-18T10:14:40;99991.16;;;8.81;100.00
28310;BME280;15571;50.974;13.936;2023-02-18T10:17:45;99985.91;;;8.85;100.00
28310;BME280;15571;50.974;13.936;2023-02-18T10:20:55;99974.59;;;8.90;100.00
28310;BME280;15571;50.974;13.936;2023-02-18T10:24:00;99978.06;;;8.93;100.00
28310;BME280;15571;50.974;13.936;2023-02-18T10:27:04;99976.31;;;8.97;100.00
28310;BME280;15571;50.974;13.936;2023-02-18T10:30:15;99968.50;;;9.00;100.00
28310;BME280;15571;50.974;13.936;2023-02-18T10:33:26;99951.06;;;9.05;100.00
28310;BME280;15571;50.974;13.936;2023-02-18T10:36:35;99944.97;;;9.09;100.00
28310;BME280;15571;50.974;13.936;2023-02-18T10:39:52;99951.00;;;9.17;100.00
28310;BME280;15571;50.974;13.936;2023-02-18T10:43:01;99935.31;;;9.25;100.00
28310;BME280;15571;50.974;13.936;2023-02-18T10:46:10;99919.59;;;9.33;100.00
28310;BME280;15571;50.974;13.936;2023-02-18T10:49:27;99922.16;;;9.38;100.00
28310;BME280;15571;50.974;13.936;2023-02-18T10:52:36;99919.53;;;9.45;100.00
28310;BME280;15571;50.974;13.936;2023-02-18T10:55:47;99906.44;;;9.53;100.00
28310;BME280;15571;50.974;13.936;2023-02-18T10:58:49;99898.56;;;9.58;100.00
28310;BME280;15571;50.974;13.936;2023-02-18T11:01:55;99887.22;;;9.60;100.00
28310;BME280;15571;50.974;13.936;2023-02-18T11:04:59;99882.81;;;9.67;100.00
28310;BME280;15571;50.974;13.936;2023-02-18T11:08:08;99871.44;;;9.73;100.00
28310;BME280;15571;50.974;13.936;2023-02-18T11:11:14;99873.16;;;9.78;100.00
28310;BME280;15571;50.974;13.936;2023-02-18T11:14:20;99855.69;;;9.82;100.00
28310;BME280;15571;50.974;13.936;2023-02-18T11:17:36;99851.28;;;9.89;100.00
28310;BME280;15571;50.974;13.936;2023-02-18T11:20:40;99852.94;;;9.97;100.00
28310;BME280;15571;50.974;13.936;2023-02-18T11:23:44;99842.41;;;10.02;100.00
28310;BME280;15571;50.974;13.936;2023-02-18T11:26:49;99822.34;;;10.07;100.00
28310;BME280;15571;50.974;13.936;2023-02-18T11:29:51;99816.16;;;10.15;100.00
28310;BME280;15571;50.974;13.936;2023-02-18T11:32:55;99817.00;;;10.18;100.00
28310;BME280;15571;50.974;13.936;2023-02-18T11:36:02;99811.69;;;10.24;100.00
28310;BME280;15571;50.974;13.936;2023-02-18T11:39:13;99807.31;;;10.28;100.00
28310;BME280;15571;50.974;13.936;2023-02-18T11:42:18;99798.50;;;10.34;100.00
28310;BME280;15571;50.974;13.936;2023-02-18T11:45:25;99796.78;;;10.37;100.00
28310;BME280;15571;50.974;13.936;2023-02-18T11:48:28;99778.38;;;10.43;100.00
28310;BME280;15571;50.974;13.936;2023-02-18T11:51:34;99772.25;;;10.45;100.00
28310;BME280;15571;50.974;13.936;2023-02-18T11:54:36;99759.97;;;10.51;100.00
28310;BME280;15571;50.974;13.936;2023-02-18T11:57:38;99772.13;;;10.55;100.00
28310;BME280;15571;50.974;13.936;2023-02-18T12:00:44;99765.09;;;10.59;100.00
28310;BME280;15571;50.974;13.936;2023-02-18T12:03:51;99759.81;;;10.62;100.00
28310;BME280;15571;50.974;13.936;2023-02-18T12:07:00;99751.06;;;10.66;100.00
28310;BME280;15571;50.974;13.936;2023-02-18T12:10:09;99759.72;;;10.70;100.00
28310;BME280;15571;50.974;13.936;2023-02-18T12:13:16;99755.25;;;10.78;100.00
28310;BME280;15571;50.974;13.936;2023-02-18T19:26:08;99966.13;;;10.12;100.00
28310;BME280;15571;50.974;13.936;2023-02-18T19:29:10;99970.47;;;10.15;100.00
28310;BME280;15571;50.974;13.936;2023-02-18T19:32:16;99983.53;;;10.18;100.00
28310;BME280;15571;50.974;13.936;2023-02-18T19:35:21;99981.75;;;10.20;100.00
28310;BME280;15571;50.974;13.936;2023-02-18T19:38:23;99993.13;;;10.19;100.00
28310;BME280;15571;50.974;13.936;2023-02-18T19:41:26;100000.06;;;10.20;100.00
28310;BME280;15571;50.974;13.936;2023-02-18T19:44:32;99996.63;;;10.18;100.00
28310;BME280;15571;50.974;13.936;2023-02-18T19:47:36;100019.25;;;10.20;100.00
28310;BME280;15571;50.974;13.936;2023-02-18T19:50:40;99995.69;;;10.25;100.00
28310;BME280;15571;50.974;13.936;2023-02-18T19:53:44;99993.09;;;10.22;100.00
28310;BME280;15571;50.974;13.936;2023-02-18T19:56:47;100019.25;;;10.22;100.00
28310;BME280;15571;50.974;13.936;2023-02-18T19:59:49;100010.53;;;10.21;100.00
28310;BME280;15571;50.974;13.936;2023-02-18T20:02:51;100004.47;;;10.15;100.00
28310;BME280;15571;50.974;13.936;2023-02-18T20:05:53;100005.34;;;10.13;100.00
28310;BME280;15571;50.974;13.936;2023-02-18T20:08:58;100016.66;;;10.14;100.00
28310;BME280;15571;50.974;13.936;2023-02-18T20:12:01;100011.47;;;10.09;100.00
28310;BME280;15571;50.974;13.936;2023-02-18T20:15:03;100007.16;;;10.08;100.00
28310;BME280;15571;50.974;13.936;2023-02-18T20:18:06;100014.13;;;10.06;100.00
28310;BME280;15571;50.974;13.936;2023-02-18T20:21:08;100010.63;;;10.07;100.00
28310;BME280;15571;50.974;13.936;2023-02-18T20:24:10;100008.03;;;10.04;100.00
28310;BME280;15571;50.974;13.936;2023-02-18T20:27:26;100008.94;;;10.02;100.00
28310;BME280;15571;50.974;13.936;2023-02-18T20:30:41;100015.06;;;9.99;100.00
28310;BME280;15571;50.974;13.936;2023-02-18T20:33:54;100022.91;;;9.99;100.00
